Time;durP1;ratioP1;P1;durP2;ratioP2;P2;SDS_P1;SDS_P2;PMS_P1;PMS_P2;Temp;Humidity;BMP_temperature;BMP_pressure;BME280_temperature;BME280_humidity;BME280_pressure;Samples;Min_cycle;Max_cycle;Signal;HPM_P1;HPM_P2
2024/03/11 04:05:03;;;;;;;16.08;8.48;;;;;;;;;;5026402;28;20057;-72
2024/03/11 04:07:29;;;;;;;17.65;10.10;;;;;;;;;;5014372;28;20206;-74
2024/03/11 04:09:55;;;;;;;18.83;10.00;;;;;;;;;;5013491;28;20441;-73
2024/03/11 04:12:21;;;;;;;21.23;10.23;;;;;;;;;;5016370;28;20087;-73
2024/03/11 04:14:47;;;;;;;15.93;10.10;;;;;;;;;;4997979;28;20089;-72
2024/03/11 04:17:14;;;;;;;19.60;10.02;;;;;;;;;;5013097;28;20034;-73
2024/03/11 04:19:41;;;;;;;16.33;9.88;;;;;;;;;;4995658;28;20041;-72
2024/03/11 04:22:07;;;;;;;19.50;10.32;;;;;;;;;;4995262;28;20076;-70
2024/03/11 04:24:32;;;;;;;17.58;10.70;;;;;;;;;;5012464;28;20501;-72
2024/03/11 04:26:59;;;;;;;22.42;10.98;;;;;;;;;;4994897;28;20558;-74
2024/03/11 04:29:27;;;;;;;20.02;11.70;;;;;;;;;;5012218;28;20038;-72
2024/03/11 04:31:53;;;;;;;21.83;11.30;;;;;;;;;;5015005;28;20030;-71
2024/03/11 04:34:21;;;;;;;21.17;10.75;;;;;;;;;;5014645;28;20418;-74
2024/03/11 04:36:47;;;;;;;19.33;11.32;;;;;;;;;;4997159;28;20053;-72
2024/03/11 04:39:14;;;;;;;20.13;11.40;;;;;;;;;;5006933;28;20049;-71
2024/03/11 04:41:43;;;;;;;20.10;11.57;;;;;;;;;;5016957;28;20049;-70
2024/03/11 04:44:09;;;;;;;19.38;11.85;;;;;;;;;;5034057;28;20030;-72
2024/03/11 04:46:36;;;;;;;19.25;11.10;;;;;;;;;;5014886;28;20091;-72
2024/03/11 04:49:05;;;;;;;20.60;11.85;;;;;;;;;;5013929;28;20048;-73
2024/03/11 04:51:31;;;;;;;20.55;11.73;;;;;;;;;;5031943;28;20064;-72
2024/03/11 04:53:58;;;;;;;28.40;12.38;;;;;;;;;;5013960;28;20045;-71
2024/03/11 04:56:24;;;;;;;16.65;11.25;;;;;;;;;;5032232;28;20057;-72
2024/03/11 04:58:49;;;;;;;18.45;11.45;;;;;;;;;;5031990;28;20050;-72
2024/03/11 05:01:16;;;;;;;20.10;11.63;;;;;;;;;;5032773;28;20041;-73
2024/03/11 05:03:42;;;;;;;19.50;11.65;;;;;;;;;;5014500;28;20038;-72
2024/03/11 05:06:07;;;;;;;20.38;11.48;;;;;;;;;;5015185;28;20177;-71
2024/03/11 05:08:34;;;;;;;22.45;11.75;;;;;;;;;;5014159;28;20056;-73
2024/03/11 05:10:59;;;;;;;20.90;12.07;;;;;;;;;;5013705;28;20139;-72
2024/03/11 05:13:25;;;;;;;21.05;11.27;;;;;;;;;;5032000;28;20033;-72
2024/03/11 05:15:51;;;;;;;20.13;11.48;;;;;;;;;;5014453;28;20046;-73
2024/03/11 05:18:16;;;;;;;17.35;11.45;;;;;;;;;;5028395;28;20041;-73
2024/03/11 05:20:42;;;;;;;23.20;11.70;;;;;;;;;;5014176;28;20446;-73
2024/03/11 05:23:08;;;;;;;22.23;12.40;;;;;;;;;;5013880;28;20096;-73
2024/03/11 05:25:34;;;;;;;23.35;11.43;;;;;;;;;;5030150;28;20056;-72
2024/03/11 05:28:00;;;;;;;19.80;11.55;;;;;;;;;;5014102;28;20512;-74
2024/03/11 05:30:29;;;;;;;21.80;10.65;;;;;;;;;;5032035;28;20388;-72
2024/03/11 05:32:56;;;;;;;20.27;10.88;;;;;;;;;;5014272;28;20073;-71
2024/03/11 05:35:21;;;;;;;19.88;10.65;;;;;;;;;;5014486;28;20033;-73
2024/03/11 05:37:50;;;;;;;18.02;10.75;;;;;;;;;;5013680;28;20072;-72
2024/03/11 05:40:18;;;;;;;21.17;11.57;;;;;;;;;;5013265;28;20378;-74
2024/03/11 05:42:49;;;;;;;23.15;12.60;;;;;;;;;;5035426;28;20042;-72
2024/03/11 05:45:14;;;;;;;22.63;11.48;;;;;;;;;;5035506;28;20355;-72
2024/03/11 05:47:45;;;;;;;18.05;10.48;;;;;;;;;;5017234;28;20044;-72
2024/03/11 05:50:12;;;;;;;22.17;11.90;;;;;;;;;;5017139;28;20041;-73
2024/03/11 05:52:38;;;;;;;21.67;11.55;;;;;;;;;;5035599;28;20033;-73
2024/03/11 05:55:11;;;;;;;27.67;11.25;;;;;;;;;;5034994;28;20033;-72
2024/03/11 05:57:38;;;;;;;21.00;11.43;;;;;;;;;;5016754;28;20041;-73
2024/03/11 06:00:09;;;;;;;17.55;10.55;;;;;;;;;;5016160;28;20041;-73
2024/03/11 06:02:38;;;;;;;19.05;11.27;;;;;;;;;;5015715;28;20037;-71
2024/03/11 06:05:05;;;;;;;24.10;11.75;;;;;;;;;;5016276;28;20045;-72
2024/03/11 06:07:30;;;;;;;18.52;10.35;;;;;;;;;;5015510;28;20037;-74
2024/03/11 06:09:56;;;;;;;17.63;10.43;;;;;;;;;;5033372;28;20069;-73
2024/03/11 06:12:22;;;;;;;20.70;11.60;;;;;;;;;;5016527;28;20034;-73
2024/03/11 06:14:49;;;;;;;21.45;10.65;;;;;;;;;;5032216;28;20041;-71
2024/03/11 06:17:15;;;;;;;25.02;11.57;;;;;;;;;;5015865;28;20045;-72
2024/03/11 06:19:42;;;;;;;20.83;11.95;;;;;;;;;;5015853;28;20073;-72
2024/03/11 06:22:10;;;;;;;18.13;11.13;;;;;;;;;;5016477;28;20033;-75
2024/03/11 06:24:38;;;;;;;21.40;11.02;;;;;;;;;;5004096;28;20072;-72
2024/03/11 06:27:04;;;;;;;22.55;10.82;;;;;;;;;;5004666;28;20100;-74
2024/03/11 06:29:30;;;;;;;23.67;11.00;;;;;;;;;;5012479;28;20533;-73
2024/03/11 06:31:58;;;;;;;17.70;10.75;;;;;;;;;;5023837;28;20416;-74
2024/03/11 06:34:27;;;;;;;22.17;10.77;;;;;;;;;;5007365;28;20125;-73
2024/03/11 06:36:54;;;;;;;18.83;10.52;;;;;;;;;;5020085;28;20065;-74
2024/03/11 06:39:19;;;;;;;20.45;10.85;;;;;;;;;;5009192;28;20038;-71
2024/03/11 06:41:47;;;;;;;22.25;11.57;;;;;;;;;;5020570;28;20113;-75
2024/03/11 06:44:13;;;;;;;22.80;11.35;;;;;;;;;;5037217;28;20038;-72
2024/03/11 06:46:39;;;;;;;22.33;11.10;;;;;;;;;;5018675;28;20356;-72
2024/03/11 06:49:05;;;;;;;17.42;9.50;;;;;;;;;;5015956;28;20128;-72
2024/03/11 06:51:32;;;;;;;16.75;9.20;;;;;;;;;;5004009;28;20038;-70
2024/03/11 06:53:59;;;;;;;20.85;9.48;;;;;;;;;;5008598;28;20037;-71
2024/03/11 06:56:26;;;;;;;23.58;9.40;;;;;;;;;;5012620;28;20033;-73
2024/03/11 06:58:52;;;;;;;19.75;9.90;;;;;;;;;;5003987;28;20659;-72
2024/03/11 07:01:18;;;;;;;13.23;8.60;;;;;;;;;;5000639;28;20037;-72
2024/03/11 07:03:43;;;;;;;18.23;9.05;;;;;;;;;;5004689;28;20080;-70
2024/03/11 07:06:10;;;;;;;18.42;9.23;;;;;;;;;;5032002;28;20085;-71
2024/03/11 07:08:38;;;;;;;15.73;9.05;;;;;;;;;;5021157;28;20083;-72
2024/03/11 07:11:04;;;;;;;15.73;8.90;;;;;;;;;;5022582;28;20704;-73
2024/03/11 07:13:37;;;;;;;13.52;7.82;;;;;;;;;;4993646;28;20034;-72
2024/03/11 07:16:05;;;;;;;17.60;8.60;;;;;;;;;;4993099;28;20088;-72
2024/03/11 07:18:36;;;;;;;12.25;6.40;;;;;;;;;;5010038;28;20068;-72
2024/03/11 07:21:05;;;;;;;11.80;6.43;;;;;;;;;;5026093;28;20054;-72
2024/03/11 07:23:37;;;;;;;10.57;6.35;;;;;;;;;;4992550;28;20150;-72
2024/03/11 07:26:04;;;;;;;12.70;6.63;;;;;;;;;;5016974;28;20037;-74
2024/03/11 07:28:31;;;;;;;9.57;6.22;;;;;;;;;;4993502;28;20132;-76
2024/03/11 07:30:57;;;;;;;9.65;5.38;;;;;;;;;;5022136;28;20467;-74
2024/03/11 07:33:25;;;;;;;9.25;5.55;;;;;;;;;;5000842;28;20061;-72
2024/03/11 07:35:53;;;;;;;9.07;5.03;;;;;;;;;;5018141;28;20757;-73
2024/03/11 07:38:19;;;;;;;10.30;5.50;;;;;;;;;;4999754;28;20099;-71
2024/03/11 07:40:46;;;;;;;8.40;4.45;;;;;;;;;;5010389;28;20113;-73
2024/03/11 07:43:13;;;;;;;8.95;5.13;;;;;;;;;;5000442;28;20065;-74
2024/03/11 07:47:36;;;;;;;7.45;4.22;;;;;;;;;;5098181;27;20431;-73
2024/03/11 07:50:03;;;;;;;6.78;4.15;;;;;;;;;;5053805;28;20036;-73
2024/03/11 09:47:41;;;;;;;7.07;4.18;;;;;;;;;;5009391;28;20060;-72
2024/03/11 09:50:11;;;;;;;5.57;3.40;;;;;;;;;;5007917;28;20661;-72
2024/03/11 09:52:37;;;;;;;4.97;3.40;;;;;;;;;;4999196;28;20041;-74
2024/03/11 09:55:05;;;;;;;5.35;3.13;;;;;;;;;;5009703;28;20025;-73
2024/03/11 09:57:38;;;;;;;4.75;2.97;;;;;;;;;;5008746;28;20021;-74
2024/03/11 10:00:12;;;;;;;5.18;3.55;;;;;;;;;;5011679;28;20079;-72
2024/03/11 10:02:46;;;;;;;3.72;2.67;;;;;;;;;;5003168;28;20029;-73
2024/03/11 10:05:16;;;;;;;4.65;3.17;;;;;;;;;;5029325;28;20352;-69
2024/03/11 10:07:43;;;;;;;5.18;2.88;;;;;;;;;;5029527;28;20022;-68
2024/03/11 10:10:24;;;;;;;3.75;2.40;;;;;;;;;;5008837;28;20041;-70
2024/03/11 10:12:53;;;;;;;4.85;2.65;;;;;;;;;;5029771;28;20029;-70
2024/03/11 10:15:50;;;;;;;3.78;2.58;;;;;;;;;;5013467;28;20030;-72
2024/03/11 10:18:36;;;;;;;3.42;2.05;;;;;;;;;;5031215;28;20037;-70
2024/03/11 10:21:03;;;;;;;10.27;2.22;;;;;;;;;;5010845;28;20177;-70
2024/03/11 10:23:32;;;;;;;3.53;2.28;;;;;;;;;;5028057;28;20042;-69
2024/03/11 10:26:17;;;;;;;2.22;2.03;;;;;;;;;;4995256;28;20029;-70
2024/03/11 10:28:56;;;;;;;4.03;2.85;;;;;;;;;;5012876;28;20126;-70
2024/03/11 10:31:27;;;;;;;2.30;1.88;;;;;;;;;;4995213;28;20489;-69
2024/03/11 10:34:20;;;;;;;;;;;;;;;;;;5017386;28;20108;-69
2024/03/11 10:36:46;;;;;;;2.78;2.10;;;;;;;;;;5012652;28;19913;-70
2024/03/11 10:41:51;;;;;;;2.53;1.88;;;;;;;;;;5028000;28;20029;-70
2024/03/11 10:44:29;;;;;;;3.97;1.88;;;;;;;;;;5025897;28;20071;-69
2024/03/11 10:47:14;;;;;;;2.42;1.90;;;;;;;;;;5027655;28;20053;-68
2024/03/11 10:57:39;;;;;;;2.63;1.70;;;;;;;;;;1338915;26;20139;-70
2024/03/11 11:03:12;;;;;;;2.88;1.60;;;;;;;;;;5011628;28;20141;-70
2024/03/11 11:06:14;;;;;;;4.65;1.55;;;;;;;;;;5017828;28;20033;-69
2024/03/11 11:08:42;;;;;;;2.50;1.67;;;;;;;;;;5021169;28;20039;-69
2024/03/11 11:11:17;;;;;;;2.83;1.73;;;;;;;;;;5015179;28;20446;-69
2024/03/11 11:13:55;;;;;;;3.75;1.50;;;;;;;;;;5016965;28;20558;-70
2024/03/11 11:16:37;;;;;;;2.63;1.67;;;;;;;;;;5045420;28;20037;-70
2024/03/11 11:19:33;;;;;;;5.53;2.35;;;;;;;;;;5018264;28;20378;-70
2024/03/11 11:22:07;;;;;;;2.65;1.55;;;;;;;;;;5005369;28;20033;-71
2024/03/11 11:24:39;;;;;;;1.92;1.60;;;;;;;;;;5015824;28;20500;-69
2024/03/11 11:27:29;;;;;;;5.10;1.95;;;;;;;;;;5015531;28;20523;-70
2024/03/11 11:30:38;;;;;;;2.38;1.52;;;;;;;;;;5029155;28;20348;-70
2024/03/11 11:33:08;;;;;;;1.40;1.05;;;;;;;;;;5010812;28;20037;-68
2024/03/11 11:35:37;;;;;;;1.77;1.35;;;;;;;;;;4994083;28;20374;-70
2024/03/11 11:38:24;;;;;;;2.55;1.75;;;;;;;;;;5011503;28;20052;-69
2024/03/11 11:41:34;;;;;;;1.98;1.35;;;;;;;;;;5035291;28;20076;-72
2024/03/11 11:44:30;;;;;;;2.00;1.42;;;;;;;;;;5018593;28;20129;-70
2024/03/11 11:47:15;;;;;;;1.90;1.70;;;;;;;;;;5026983;28;20453;-70
2024/03/11 11:49:43;;;;;;;1.45;0.98;;;;;;;;;;5035302;28;20029;-71
2024/03/11 11:52:16;;;;;;;6.07;1.40;;;;;;;;;;5025752;28;20040;-69
2024/03/11 11:54:46;;;;;;;2.47;1.65;;;;;;;;;;5014905;28;20120;-70
2024/03/11 11:57:25;;;;;;;2.90;1.20;;;;;;;;;;5001529;28;20252;-70
2024/03/11 12:00:03;;;;;;;1.95;1.23;;;;;;;;;;5018511;28;20111;-73
2024/03/11 12:02:45;;;;;;;2.83;1.45;;;;;;;;;;5032530;28;20098;-70
2024/03/11 12:05:15;;;;;;;1.13;0.95;;;;;;;;;;5023989;28;20029;-71
2024/03/11 12:07:43;;;;;;;1.38;1.00;;;;;;;;;;5013765;28;20037;-71
2024/03/11 12:10:13;;;;;;;1.20;0.90;;;;;;;;;;5010981;28;20063;-69
2024/03/11 12:12:44;;;;;;;1.67;1.08;;;;;;;;;;5029897;28;20164;-70
2024/03/11 12:15:17;;;;;;;1.42;1.00;;;;;;;;;;4994272;28;20026;-70
2024/03/11 12:17:52;;;;;;;1.58;1.10;;;;;;;;;;5031443;28;20025;-70
2024/03/11 12:20:30;;;;;;;1.45;1.00;;;;;;;;;;5036141;28;20175;-70
2024/03/11 12:23:13;;;;;;;1.50;1.15;;;;;;;;;;5026971;28;20486;-72
2024/03/11 12:25:39;;;;;;;2.25;1.30;;;;;;;;;;5024855;28;20036;-70
2024/03/11 12:28:07;;;;;;;1.27;0.93;;;;;;;;;;5035389;28;20029;-70
2024/03/11 12:30:37;;;;;;;1.42;1.05;;;;;;;;;;5013835;28;20035;-70
2024/03/11 12:33:06;;;;;;;1.77;1.30;;;;;;;;;;5041088;28;20112;-70
2024/03/11 12:35:36;;;;;;;1.08;0.98;;;;;;;;;;5018180;28;20454;-68
2024/03/11 12:38:10;;;;;;;1.17;1.03;;;;;;;;;;5029014;28;20091;-69
2024/03/11 12:40:42;;;;;;;1.63;0.90;;;;;;;;;;5002073;28;20033;-69
2024/03/11 12:43:19;;;;;;;1.30;0.95;;;;;;;;;;5038664;28;20064;-71
2024/03/11 12:46:11;;;;;;;2.53;1.25;;;;;;;;;;5032279;28;20037;-70
2024/03/11 12:48:43;;;;;;;2.78;0.80;;;;;;;;;;5025161;28;20026;-71
2024/03/11 12:51:10;;;;;;;5.88;0.93;;;;;;;;;;5044711;28;20029;-69
2024/03/11 12:53:48;;;;;;;2.72;0.93;;;;;;;;;;5015385;28;20053;-71
2024/03/11 12:56:25;;;;;;;1.77;1.30;;;;;;;;;;5020754;28;20060;-72
2024/03/11 12:59:02;;;;;;;1.55;1.25;;;;;;;;;;5036357;28;20036;-68
2024/03/11 13:01:29;;;;;;;1.90;1.23;;;;;;;;;;5029557;28;20473;-69
2024/03/11 13:03:56;;;;;;;2.08;1.10;;;;;;;;;;5017993;28;20037;-71
2024/03/11 13:06:45;;;;;;;2.33;1.20;;;;;;;;;;5007831;28;20033;-72
2024/03/11 13:09:24;;;;;;;1.55;0.98;;;;;;;;;;5001204;28;20044;-70
2024/03/11 13:12:01;;;;;;;2.03;0.90;;;;;;;;;;4998117;28;20033;-70
2024/03/11 13:14:28;;;;;;;1.27;1.00;;;;;;;;;;5010416;28;20025;-70
2024/03/11 13:16:55;;;;;;;1.33;1.23;;;;;;;;;;5022720;28;20696;-72
2024/03/11 13:19:25;;;;;;;0.98;0.70;;;;;;;;;;5018281;28;20670;-71
2024/03/11 13:21:56;;;;;;;1.73;1.50;;;;;;;;;;5037517;28;20058;-71
2024/03/11 13:24:32;;;;;;;1.00;0.85;;;;;;;;;;5028941;28;20076;-70
2024/03/11 13:26:59;;;;;;;1.30;0.88;;;;;;;;;;5016917;28;20041;-70
2024/03/11 13:29:27;;;;;;;2.20;1.17;;;;;;;;;;5039976;28;20040;-72
2024/03/11 13:31:55;;;;;;;2.55;1.17;;;;;;;;;;5017669;28;20018;-73
2024/03/11 13:34:21;;;;;;;1.38;1.20;;;;;;;;;;5022748;28;20033;-70
2024/03/11 13:36:49;;;;;;;2.08;1.00;;;;;;;;;;5026868;28;20068;-75
2024/03/11 13:39:18;;;;;;;2.85;1.77;;;;;;;;;;5018349;28;20428;-76
2024/03/11 13:41:46;;;;;;;2.67;1.30;;;;;;;;;;5033974;28;20117;-75
2024/03/11 13:44:20;;;;;;;4.28;1.10;;;;;;;;;;5044320;28;20115;-75
2024/03/11 13:46:48;;;;;;;1.27;1.02;;;;;;;;;;5040116;28;20060;-75
2024/03/11 13:49:18;;;;;;;3.92;1.10;;;;;;;;;;5014402;28;20121;-75
2024/03/11 13:51:44;;;;;;;2.30;1.05;;;;;;;;;;4997684;28;20045;-75
2024/03/11 13:54:10;;;;;;;3.30;1.60;;;;;;;;;;5033085;28;20017;-76
2024/03/11 13:56:36;;;;;;;3.58;1.52;;;;;;;;;;5032179;28;20076;-70
2024/03/11 13:59:05;;;;;;;1.88;1.00;;;;;;;;;;5034505;28;20717;-74
2024/03/11 14:01:31;;;;;;;1.83;1.20;;;;;;;;;;5034942;28;20033;-73
2024/03/11 14:03:59;;;;;;;4.18;1.27;;;;;;;;;;5045069;28;20037;-74
2024/03/11 14:06:27;;;;;;;5.32;1.00;;;;;;;;;;5020725;28;20081;-75
2024/03/11 14:08:55;;;;;;;4.72;1.00;;;;;;;;;;5034796;28;20060;-72
2024/03/11 14:11:25;;;;;;;4.18;1.55;;;;;;;;;;5041850;28;20116;-70
2024/03/11 14:13:54;;;;;;;2.30;1.33;;;;;;;;;;5003893;28;20104;-75
2024/03/11 14:16:21;;;;;;;2.25;0.80;;;;;;;;;;5039570;28;20029;-73
2024/03/11 14:18:47;;;;;;;2.67;1.27;;;;;;;;;;5033040;28;20033;-74
2024/03/11 14:21:12;;;;;;;1.60;1.45;;;;;;;;;;5017314;28;20172;-73
2024/03/11 14:23:38;;;;;;;7.30;2.20;;;;;;;;;;5012046;28;20480;-74
2024/03/11 14:26:11;;;;;;;0.85;0.85;;;;;;;;;;5014071;28;20033;-73
2024/03/11 14:28:46;;;;;;;2.17;1.33;;;;;;;;;;5016198;28;20029;-73
2024/03/11 14:31:22;;;;;;;;;;;;;;;;;;5034033;28;20493;-75
2024/03/11 14:33:48;;;;;;;1.00;0.80;;;;;;;;;;5028887;28;19917;-76
2024/03/11 14:36:15;;;;;;;1.50;1.08;;;;;;;;;;5039412;28;20023;-73
2024/03/11 14:38:43;;;;;;;2.20;1.23;;;;;;;;;;5005735;28;20034;-75
2024/03/11 14:41:11;;;;;;;1.00;0.82;;;;;;;;;;4997979;28;20026;-73
2024/03/11 14:43:50;;;;;;;6.25;3.50;;;;;;;;;;5034594;28;20021;-74
2024/03/11 14:46:17;;;;;;;2.28;1.10;;;;;;;;;;5007794;28;20540;-73
2024/03/11 14:48:50;;;;;;;2.03;1.23;;;;;;;;;;5026246;28;20066;-77
2024/03/11 14:51:21;;;;;;;3.30;1.20;;;;;;;;;;5016683;28;20117;-75
2024/03/11 14:53:47;;;;;;;3.22;1.02;;;;;;;;;;5002787;28;20049;-76
2024/03/11 14:56:17;;;;;;;5.60;1.33;;;;;;;;;;5016689;28;20090;-75
2024/03/11 14:58:44;;;;;;;1.55;1.05;;;;;;;;;;5011633;28;20424;-74
2024/03/11 15:01:18;;;;;;;1.92;1.08;;;;;;;;;;5028068;28;20484;-73
2024/03/11 15:03:46;;;;;;;1.23;1.05;;;;;;;;;;5045125;28;20025;-74
2024/03/11 15:06:15;;;;;;;4.30;1.33;;;;;;;;;;5013002;28;20061;-74
2024/03/11 15:08:42;;;;;;;2.13;1.00;;;;;;;;;;5032208;28;20124;-76
2024/03/11 15:11:17;;;;;;;9.25;1.38;;;;;;;;;;5039402;28;20034;-75
2024/03/11 15:13:44;;;;;;;1.40;0.98;;;;;;;;;;5027074;28;20039;-76
2024/03/11 15:16:19;;;;;;;1.48;0.90;;;;;;;;;;5018623;28;20032;-75
2024/03/11 15:18:47;;;;;;;2.65;1.08;;;;;;;;;;5003464;28;20033;-73
2024/03/11 15:21:14;;;;;;;2.60;1.15;;;;;;;;;;5015176;28;20029;-74
2024/03/11 15:23:41;;;;;;;3.25;0.80;;;;;;;;;;5013892;28;20350;-73
2024/03/11 15:26:14;;;;;;;5.88;1.30;;;;;;;;;;5014081;28;20036;-73
2024/03/11 15:28:41;;;;;;;1.23;1.00;;;;;;;;;;5014099;28;20746;-71
2024/03/11 15:31:10;;;;;;;3.35;0.90;;;;;;;;;;5013945;28;20026;-75
2024/03/11 15:33:39;;;;;;;1.77;0.82;;;;;;;;;;5000900;28;20037;-75
2024/03/11 15:36:11;;;;;;;0.85;0.73;;;;;;;;;;5000720;28;20022;-75
2024/03/11 15:38:38;;;;;;;1.70;0.90;;;;;;;;;;5014073;28;20022;-73
2024/03/11 15:41:05;;;;;;;2.30;1.02;;;;;;;;;;5016079;28;20035;-73
2024/03/11 15:43:33;;;;;;;6.30;1.48;;;;;;;;;;5013937;28;20041;-72
2024/03/11 15:46:00;;;;;;;1.67;1.08;;;;;;;;;;5032475;28;20029;-76
2024/03/11 15:48:32;;;;;;;1.73;1.38;;;;;;;;;;5012900;28;20028;-74
2024/03/11 15:51:03;;;;;;;1.52;0.90;;;;;;;;;;5012196;28;20037;-74
2024/03/11 15:53:30;;;;;;;;;;;;;;;;;;5033761;28;20030;-73
2024/03/11 15:55:56;;;;;;;2.92;1.83;;;;;;;;;;5016802;28;19909;-75
2024/03/11 15:58:24;;;;;;;3.13;1.13;;;;;;;;;;5016078;28;20506;-72
2024/03/11 16:00:56;;;;;;;2.17;1.30;;;;;;;;;;5012289;28;20104;-74
2024/03/11 16:03:29;;;;;;;2.45;1.20;;;;;;;;;;5016365;28;20033;-75
2024/03/11 16:05:55;;;;;;;4.30;1.38;;;;;;;;;;5016101;28;20030;-74
2024/03/11 16:08:44;;;;;;;4.13;1.17;;;;;;;;;;5036594;28;20044;-72
2024/03/11 16:11:22;;;;;;;4.93;1.58;;;;;;;;;;5012104;28;20117;-76
2024/03/11 16:13:51;;;;;;;2.97;1.50;;;;;;;;;;5001129;28;20033;-76
2024/03/11 16:16:31;;;;;;;1.03;0.83;;;;;;;;;;5017739;28;20028;-76
2024/03/11 16:19:00;;;;;;;2.78;0.85;;;;;;;;;;5003323;28;20341;-75
2024/03/11 16:21:33;;;;;;;1.33;1.08;;;;;;;;;;5016770;28;20118;-76
2024/03/11 16:23:59;;;;;;;1.23;1.00;;;;;;;;;;4983070;28;20038;-72
2024/03/11 16:26:34;;;;;;;1.38;1.10;;;;;;;;;;5013524;28;20034;-72
2024/03/11 16:29:21;;;;;;;2.03;1.20;;;;;;;;;;4998307;28;20034;-78
2024/03/11 16:31:50;;;;;;;4.65;1.10;;;;;;;;;;5012581;28;20160;-73
2024/03/11 16:34:23;;;;;;;3.15;1.25;;;;;;;;;;5000966;28;20032;-74
2024/03/11 16:36:53;;;;;;;2.78;1.00;;;;;;;;;;5007337;28;20031;-71
2024/03/11 16:39:22;;;;;;;3.30;1.30;;;;;;;;;;5013926;28;20440;-74
2024/03/11 16:41:50;;;;;;;2.33;1.27;;;;;;;;;;5016956;28;20030;-72
2024/03/11 16:44:17;;;;;;;2.97;1.30;;;;;;;;;;5034808;28;20084;-75
2024/03/11 16:46:47;;;;;;;1.27;0.80;;;;;;;;;;5016937;28;20025;-74
2024/03/11 16:49:13;;;;;;;3.13;1.25;;;;;;;;;;4999808;28;20128;-73
2024/03/11 16:51:39;;;;;;;3.03;1.20;;;;;;;;;;4996795;28;20026;-74
2024/03/11 16:54:05;;;;;;;3.92;1.33;;;;;;;;;;5006500;28;20034;-73
2024/03/11 16:56:34;;;;;;;1.63;1.50;;;;;;;;;;5033537;28;20030;-72
2024/03/11 16:59:03;;;;;;;2.33;1.50;;;;;;;;;;5028045;28;20033;-71
2024/03/11 17:01:30;;;;;;;2.35;0.93;;;;;;;;;;5017150;28;20038;-75
2024/03/11 17:03:59;;;;;;;3.15;1.25;;;;;;;;;;5000601;28;20034;-72
2024/03/11 17:06:27;;;;;;;7.55;1.58;;;;;;;;;;5043643;28;20036;-72
2024/03/11 17:08:53;;;;;;;1.60;1.30;;;;;;;;;;5039633;28;20216;-74
2024/03/11 17:11:19;;;;;;;4.00;2.25;;;;;;;;;;4983970;28;20690;-74
2024/03/11 17:13:47;;;;;;;4.70;1.55;;;;;;;;;;5040687;28;20044;-76
2024/03/11 17:16:28;;;;;;;5.30;1.70;;;;;;;;;;5041142;28;20781;-73
2024/03/11 17:18:57;;;;;;;3.33;1.95;;;;;;;;;;5036422;28;20033;-76
2024/03/11 17:21:31;;;;;;;1.33;1.13;;;;;;;;;;5038342;28;20120;-74
2024/03/11 17:24:10;;;;;;;3.42;2.08;;;;;;;;;;5032903;28;20033;-74
2024/03/11 17:26:37;;;;;;;6.28;1.77;;;;;;;;;;5027153;28;20060;-76
2024/03/11 17:29:08;;;;;;;3.00;1.98;;;;;;;;;;5051635;28;20025;-74
2024/03/11 17:31:39;;;;;;;9.35;1.88;;;;;;;;;;5033775;28;20080;-75
2024/03/11 17:34:18;;;;;;;2.33;1.40;;;;;;;;;;5043260;28;20027;-74
2024/03/11 17:36:44;;;;;;;3.25;1.65;;;;;;;;;;5021124;28;20029;-71
2024/03/11 17:39:13;;;;;;;5.30;3.50;;;;;;;;;;5035712;28;20124;-73
2024/03/11 17:42:00;;;;;;;2.88;2.00;;;;;;;;;;5044166;28;20537;-75
2024/03/11 17:44:51;;;;;;;5.80;2.00;;;;;;;;;;5046634;28;20107;-69
2024/03/11 17:47:19;;;;;;;7.30;2.28;;;;;;;;;;5024100;28;20088;-72
2024/03/11 17:49:46;;;;;;;3.42;2.00;;;;;;;;;;5079434;22;20123;-77
2024/03/11 17:52:11;;;;;;;5.40;2.47;;;;;;;;;;5091250;28;20020;-74
2024/03/11 17:54:37;;;;;;;7.20;3.08;;;;;;;;;;5075144;28;20039;-76
2024/03/11 17:57:03;;;;;;;6.13;3.13;;;;;;;;;;5099162;28;20422;-75
2024/03/11 17:59:28;;;;;;;3.00;2.08;;;;;;;;;;5076032;28;20074;-76
2024/03/11 18:01:54;;;;;;;6.75;3.55;;;;;;;;;;5078471;28;20384;-77
2024/03/11 18:04:19;;;;;;;6.88;3.20;;;;;;;;;;5078080;28;20020;-77
2024/03/11 18:06:45;;;;;;;4.25;2.80;;;;;;;;;;5073424;28;20031;-75
2024/03/11 18:09:10;;;;;;;12.82;2.90;;;;;;;;;;5080071;28;20549;-79
2024/03/11 18:11:37;;;;;;;4.45;2.10;;;;;;;;;;5084441;28;20012;-76
2024/03/11 18:14:04;;;;;;;6.68;2.53;;;;;;;;;;5060921;28;20115;-76
2024/03/11 18:16:30;;;;;;;5.97;2.58;;;;;;;;;;5079525;28;20021;-76
2024/03/11 18:18:57;;;;;;;7.88;3.03;;;;;;;;;;5068670;28;20388;-78
2024/03/11 18:21:22;;;;;;;7.85;3.08;;;;;;;;;;5092688;28;20020;-77
2024/03/11 18:23:48;;;;;;;8.73;3.00;;;;;;;;;;5069250;28;20025;-78
2024/03/11 18:26:16;;;;;;;9.40;3.03;;;;;;;;;;5078593;28;20067;-77
2024/03/11 18:28:42;;;;;;;8.00;3.35;;;;;;;;;;5084772;28;20015;-77
2024/03/11 18:31:10;;;;;;;7.28;3.03;;;;;;;;;;5068126;28;20035;-76
2024/03/11 18:33:36;;;;;;;6.75;3.33;;;;;;;;;;5074334;28;20054;-76
2024/03/11 18:36:07;;;;;;;7.63;2.70;;;;;;;;;;5078136;28;20024;-76
2024/03/11 18:38:34;;;;;;;4.80;2.95;;;;;;;;;;5060261;28;20028;-80
2024/03/11 18:41:00;;;;;;;8.10;4.57;;;;;;;;;;5079093;28;20028;-75
2024/03/11 18:43:26;;;;;;;7.97;3.38;;;;;;;;;;5079922;28;20031;-77
2024/03/11 18:45:51;;;;;;;7.57;3.42;;;;;;;;;;5089933;28;20110;-79
2024/03/11 18:48:18;;;;;;;7.57;3.63;;;;;;;;;;5097850;28;20408;-74
2024/03/11 18:50:44;;;;;;;10.60;3.53;;;;;;;;;;5067193;28;20032;-76
2024/03/11 18:53:09;;;;;;;9.90;3.55;;;;;;;;;;5085703;28;20067;-74
2024/03/11 18:55:35;;;;;;;5.88;3.53;;;;;;;;;;5090554;28;20082;-77
2024/03/11 18:58:02;;;;;;;9.88;3.75;;;;;;;;;;5075264;28;20119;-78
2024/03/11 19:00:31;;;;;;;12.50;4.35;;;;;;;;;;5084335;28;20415;-75
2024/03/11 19:02:57;;;;;;;8.50;4.05;;;;;;;;;;5059904;28;20017;-78
2024/03/11 19:05:27;;;;;;;7.22;4.00;;;;;;;;;;5082495;28;20028;-79
2024/03/11 19:07:54;;;;;;;14.25;6.28;;;;;;;;;;5083906;28;20039;-78
2024/03/11 19:10:31;;;;;;;9.18;4.60;;;;;;;;;;5096104;28;20039;-77
2024/03/11 19:12:56;;;;;;;7.97;4.18;;;;;;;;;;5063008;28;20028;-80
2024/03/11 19:15:28;;;;;;;9.15;4.32;;;;;;;;;;5088315;28;20050;-77
2024/03/11 19:17:54;;;;;;;9.35;4.28;;;;;;;;;;5098085;28;20035;-79
2024/03/11 19:20:21;;;;;;;13.65;4.85;;;;;;;;;;5069829;28;20484;-77
2024/03/11 19:22:48;;;;;;;12.10;5.03;;;;;;;;;;5077576;28;20131;-79
2024/03/11 19:25:18;;;;;;;8.77;4.63;;;;;;;;;;5077959;28;20103;-77
2024/03/11 19:27:45;;;;;;;8.05;4.90;;;;;;;;;;5078107;28;20040;-78
2024/03/11 19:30:11;;;;;;;9.05;4.93;;;;;;;;;;5058300;28;20056;-78
2024/03/11 19:32:41;;;;;;;8.52;5.20;;;;;;;;;;5059461;28;20028;-75
2024/03/11 19:35:14;;;;;;;8.88;5.97;;;;;;;;;;5060590;28;20055;-77
2024/03/11 19:38:13;;;;;;;13.77;5.72;;;;;;;;;;5080448;28;20032;-77
2024/03/11 19:41:02;;;;;;;9.45;4.90;;;;;;;;;;5078943;28;20034;-77
2024/03/11 19:43:49;;;;;;;9.88;5.10;;;;;;;;;;5089473;28;20027;-77
2024/03/11 19:46:54;;;;;;;10.55;6.78;;;;;;;;;;5059295;28;20028;-79
2024/03/11 19:49:26;;;;;;;10.65;5.38;;;;;;;;;;5042900;28;20438;-78
2024/03/11 19:52:40;;;;;;;11.27;4.80;;;;;;;;;;5062270;28;20132;-76
2024/03/11 19:55:37;;;;;;;11.00;5.53;;;;;;;;;;5095282;28;20170;-76
2024/03/11 19:58:44;;;;;;;8.65;4.90;;;;;;;;;;5062999;28;20032;-76
2024/03/11 20:01:33;;;;;;;14.95;5.50;;;;;;;;;;5069815;28;20117;-76
2024/03/11 20:04:44;;;;;;;17.08;5.38;;;;;;;;;;5075780;28;20082;-76
2024/03/11 20:07:37;;;;;;;14.20;5.63;;;;;;;;;;5058360;28;20036;-76
2024/03/11 20:10:25;;;;;;;9.38;4.90;;;;;;;;;;5074552;28;20029;-75
2024/03/11 20:13:22;;;;;;;10.77;5.75;;;;;;;;;;5055818;28;20043;-76
2024/03/11 20:16:14;;;;;;;12.70;5.45;;;;;;;;;;5056153;28;20508;-76
2024/03/11 20:18:47;;;;;;;;;;;;;;;;;;5064651;28;20024;-76
2024/03/11 20:21:36;;;;;;;15.65;5.22;;;;;;;;;;5059090;28;19919;-77
2024/03/11 20:24:41;;;;;;;8.20;4.10;;;;;;;;;;5062893;28;20024;-77
2024/03/11 20:27:22;;;;;;;9.13;5.00;;;;;;;;;;5055109;28;20016;-78
2024/03/11 20:29:59;;;;;;;10.18;5.22;;;;;;;;;;5075862;28;20467;-79
2024/03/11 20:32:40;;;;;;;12.85;4.93;;;;;;;;;;5046914;28;20020;-76
2024/03/11 20:35:05;;;;;;;11.80;5.72;;;;;;;;;;5071889;28;20082;-78
2024/03/11 20:37:31;;;;;;;11.50;4.95;;;;;;;;;;5082886;28;20414;-77
2024/03/11 20:39:56;;;;;;;11.73;4.78;;;;;;;;;;5085744;28;20028;-76
2024/03/11 20:42:22;;;;;;;10.43;4.63;;;;;;;;;;5082731;28;20044;-77
2024/03/11 20:44:48;;;;;;;15.93;6.10;;;;;;;;;;5074150;28;20032;-75
2024/03/11 20:47:15;;;;;;;12.05;5.95;;;;;;;;;;5065719;28;20088;-76
2024/03/11 20:49:43;;;;;;;11.13;5.00;;;;;;;;;;5072683;28;20028;-76
2024/03/11 20:52:09;;;;;;;15.60;6.47;;;;;;;;;;5075379;28;20050;-77
2024/03/11 20:54:36;;;;;;;15.23;6.50;;;;;;;;;;5078775;28;20042;-76
2024/03/11 20:57:02;;;;;;;9.73;5.57;;;;;;;;;;5082797;28;20024;-78
2024/03/11 20:59:28;;;;;;;9.02;5.28;;;;;;;;;;5093094;28;20483;-74
2024/03/11 21:01:54;;;;;;;11.80;5.50;;;;;;;;;;5072622;28;20023;-79
2024/03/11 21:04:19;;;;;;;9.60;5.00;;;;;;;;;;5070053;28;20118;-76
2024/03/11 21:06:45;;;;;;;12.07;6.55;;;;;;;;;;5081834;28;20023;-75
2024/03/11 21:09:12;;;;;;;10.43;6.25;;;;;;;;;;5091254;28;20031;-79
2024/03/11 21:11:39;;;;;;;11.07;5.93;;;;;;;;;;5066425;28;20032;-79
2024/03/11 21:14:05;;;;;;;12.82;6.20;;;;;;;;;;5077026;28;20027;-77
2024/03/11 21:16:31;;;;;;;11.52;6.32;;;;;;;;;;5088407;28;20329;-79